15:30
Airports
History
Links
Donate
Help keep this website running!
PayPal
Bitcoin
This page is community maintained. The information is intended for PC simulator navigation or reference.
Always use approved charts for navigation.
CYCG
CASTLEGAR
CASTLEGAR (CYCG)
Castlegar, British Columbia, Canada
(C)
Lat/Lng:49° 17' 46.4" N / 117° 37' 57.01" W
49.296223 / -117.632504
Elevation:1624'ft / 495mMSL
ID / ICAO:CYCG
Runways:1
Longest:15-33
Asphalt 1,609m / 5,280ft
Controlled:Yes
METAR15:00 GMT 2018-02-19
Altimeter: 30.12
Visibility: 15.0 statute miles
Wind: 2 knots (from VRB°)
Temp: -18°c / -0°f
Humidity: 77.2%

METAR: CYCG 191500Z VRB02KT 15SM FEW210 M18/M21 A3012 RMK CI1 FG PATCHES OVR RIVER SLP239

(Powered by phpweather)
Airport Radio Frequencies
CTAF: 122.1
Nearby VORs <50NM
Nearby NDBs
Runway 15 / 33
Dimensions:1609.3 x 45.7m 5280' x 150'ft
Surface:Asphalt
Runway 15 [A]Runway 33 [B]
Heading:169°TH 349°TH
Lat:
Lng:
49° 18' 12.07"N
117° 38' 4.65"W
49° 17' 20.73"N
117° 37' 49.38"W
ALS:RAIL
User Notes and Comments
49° 17' 46.4" N / 117° 37' 57.01" W
Distance To
Airport ID:
Nearby Airports
(U) Trail 15.9 NM
AD4 S 174°
4 Salmo 18.3 NM
BG6 ESE 116°
(U) Nelson Airport 20.2 NM
CZNL NE 47°
(R) Crown Creek Ranch 33.5 NM
57WA SSW 205°
4 Avey Field 33.7 NM
69S SW 232°
4 Sullivan Lake State 35.2 NM
09S SSE 153°
(U) GRAND FORKS 40.9 NM
CZGF WSW 241°
VFR Chart
Flight Planning at SkyVector.com